Terminal Aerodrome Forecast
Issued by NWS

Home | Current Version | Previous Version | Text Only | Print | Product List | Glossary On
Versions: 1 2 3 4 5 6 7 8 9 10 11 12 13 14 15 16 17 18 19
222
FTUS46 KLOX 212331
TAFWJF
TAF
KWJF 212331Z 2200/2224 VRB03KT P6SM BKN200
     FM220300 29006KT P6SM BKN200
     FM220800 VRB03KT P6SM BKN200
     FM222100 31009KT P6SM SCT250=

USA.gov is the U.S. government's official web portal to all federal, state and local government web resources and services.